Easton, Missouri
Current Conditions -  °F | °C
As of 1:53 AM on Sunday 26 Oct 2014 (Local Time) from KSTJ Reporting Station
Clear Clear  
Wind Chill: 60°   Ceiling: Unl
Heat Index: 60°   Visibility: 10mi
Dew Point: 46°   Wind: 5mph
Humidity: 60%   Direction: 100°E
Pressure: 30"   Gusts: NA
Location:  39.72°N, 94.64°W
Report Text: KSTJ 260653Z AUTO 10004KT 10SM CLR 16/08 A3000 RMK AO2 SLP153 T01560078
Loading
Personal Weather Stations






























Interactive Weather Map
Tropical Storm Tracking
New forecast layout! Learn more

10-Day Weather Forecast

Advertisements
Track Severe Weather on mobile